Kunming, Yunnan

1:13 PM CST on October 23, 2014 (GMT +0800)
Wujiaba | Change Station
CLOSE
Current Station
Airport
Location: Kunming,
Elevation: 6214 ft
Nearby Weather Stations

Elev 6214 ft 25.00 °N, 102.74 °E | Updated 1 hour ago

Scattered Clouds
Scattered Clouds
64 °F
Feels Like 64 °F
N
7
Wind Variable Wind from WSW

Today
High -- | Low -- °F
--% Chance of Precip.
Yesterday
High -- | Low -- °F
Precip. -- in
7:11 AM 6:35 PM
Waning Crescent, 1% visible
Pressure 30.33 in
Visibility 6.2 miles
Clouds Scattered Clouds 2300 ft
Scattered Clouds 4000 ft
Dew Point 48 °F
Humidity 56%
Rainfall 0.00 in
Snow Depth Not available.
UV 10 out of 12
Pollen Not available.
Air Quality Not available.
Flu Activity Not available.
METAR ZPPP 230400Z 24003MPS 190V290 9999 SCT023 SCT040 18/09 Q1027 NOSIG

More Conditions Fewer Conditions

Pressure 30.33 in
Visibility 6.2 miles
Clouds Scattered Clouds 2300 ft
Scattered Clouds 4000 ft
Dew Point 48 °F
Humidity 56%
Rainfall 0.00 in
Snow Depth Not available.
UV 10 out of 12
Pollen Not available.
Air Quality Not available.
Flu Activity Not available.
METAR ZPPP 230400Z 24003MPS 190V290 9999 SCT023 SCT040 18/09 Q1027 NOSIG

More Conditions Fewer Conditions

10-Day Weather Forecast

Almanac

Astronomy

Oct. 23, 2014 Rise Set
Actual Time 7:11 AM CST 6:35 PM CST
Civil Twilight 6:48 AM CST 6:58 PM CST
Nautical Twilight 6:21 AM CST 7:25 PM CST
Astronomical Twilight 5:54 AM CST 7:52 PM CST
Moon 6:24 AM CST 6:15 PM CST
Length of Visible Light 12h 10m
Length of Day
11h 24m
Tomorrow will be 1m 20s shorter.
Waning Crescent, 1% of the Moon is Illuminated
Today
Waning Crescent
Oct 23
New
Oct 30
First Quarter
Nov 6
Full
Nov 14
Last Quarter

Yesterday's Extremes

Country Highs Country Lows

Community

WunderPhotos

Upload Photos

1,764,170 photos uploaded!

Nearby

Snow Depth

Not available.

Earthquake Activity

City Distance Mag. Time & Date
No recent earthquake activity has been reported nearby.
Minimum magnitude displayed is 2.5.

Coastal Water Temperatures

Place Temperature
No Stations Reporting

Nearby Weather Stations